Marco Polo — C6JZ7 — position and weather

sailwx.info

Track history (hours):
 
Tides and Currents Weather Stations Pressure Air Temp Water Temp Dewpoint Dewpoint Depression Visibility Wind Speed Wind Dir Waves Ship Positions

Marco Polo

Operator: Orient Lines

Last reported at 2019-Apr-24 21:29 UTC. Time now 2019-Apr-24 21:53 UTC.
Position N 50°18' E 000°07'.

Type: Ship. MMSI: 308691456.

Date/timePositionNaut miles runAvg speedWind from/ knotsBaromVisibWave heightAir tempDewpointWater temp
2019-Apr-24 21:29N 50°18' E 000°07'2115.0
2019-Apr-24 20:07N 49°58' E 000°01'215.9
2019-Apr-24 20:01N 49°56' E 000°00'815.5
2019-Apr-24 19:31N 49°49' W 000°02'815.4
2019-Apr-24 19:01N 49°41' W 000°04'815.2
2019-Apr-24 18:31N 49°34' W 000°02'612.5
2019-Apr-24 18:00N 49°29' E 000°05'1 1.8
2019-Apr-24 17:28N 49°29' E 000°06'0 0.0
2019-Apr-24 16:58N 49°29' E 000°06'0 0.0
2019-Apr-24 16:28N 49°29' E 000°06'0 0.0
2019-Apr-24 15:58N 49°29' E 000°06'0 0.0
2019-Apr-24 15:28N 49°29' E 000°06'0 0.0
2019-Apr-24 14:58N 49°29' E 000°06'0 0.0
2019-Apr-24 14:28N 49°29' E 000°06'0 0.0
2019-Apr-24 13:58N 49°29' E 000°06'0 0.0
2019-Apr-24 13:28N 49°29' E 000°06'0 0.0
2019-Apr-24 12:58N 49°29' E 000°06'0 0.0
2019-Apr-24 12:28N 49°29' E 000°06'0 0.0
2019-Apr-24 11:58N 49°29' E 000°06'0 0.0
2019-Apr-24 11:28N 49°29' E 000°06'0 0.0
2019-Apr-24 10:58N 49°29' E 000°06'0 0.0
2019-Apr-24 10:28N 49°29' E 000°06'0 0.0
2019-Apr-24 09:58N 49°29' E 000°06'0 1.0
2019-Apr-24 09:31N 49°29' E 000°07'510.7
2019-Apr-24 09:00N 49°30' W 000°01'713.4
2019-Apr-24 08:30N 49°32' W 000°11'815.3
2019-Apr-24 08:01N 49°34' W 000°22'815.6
2019-Apr-24 07:30N 49°37' W 000°33'1315.1
2019-Apr-24 06:38N 49°42' W 000°52'214.8
2019-Apr-24 06:30N 49°42' W 000°55'714.3
2019-Apr-24 06:00N 49°44' W 001°06'713.5
2019-Apr-24 05:30N 49°46' W 001°16'612.5
2019-Apr-24 05:00N 49°47' W 001°25'612.3
2019-Apr-24 04:30N 49°47' W 001°35'612.6
2019-Apr-24 04:00N 49°49' W 001°45'612.3
2019-Apr-24 03:31N 49°50' W 001°54'713.2
2019-Apr-24 03:00N 49°51' W 002°04'1315.0
2019-Apr-24 02:08N 49°52' W 002°24'215.7
2019-Apr-24 02:00N 49°52' W 002°27'815.9
2019-Apr-24 01:30N 49°52' W 002°39'916.0
2019-Apr-24 00:56N 49°51' W 002°54'816.2
2019-Apr-24 00:26N 49°51' W 003°06'716.3
2019-Apr-24 00:00N 49°50' W 003°17'816.4
2019-Apr-23 23:30N 49°51' W 003°30'816.5
2019-Apr-23 23:00N 49°51' W 003°42'816.8
2019-Apr-23 22:30N 49°51' W 003°55'816.9
2019-Apr-23 22:00N 49°51' W 004°09'1016.9
2019-Apr-23 21:26N 49°52' W 004°24'817.0
2019-Apr-23 20:59N 49°52' W 004°35'63 3.9
2019-Apr-23 05:00N 50°28' W 005°55'510.7
2019-Apr-23 04:30N 50°31' W 005°49'510.8
2019-Apr-23 04:00N 50°34' W 005°42'611.3
2019-Apr-23 03:30N 50°38' W 005°35'713.2
2019-Apr-23 03:00N 50°42' W 005°27'713.5
2019-Apr-23 02:30N 50°46' W 005°18'713.6
2019-Apr-23 02:00N 50°51' W 005°10'714.1
2019-Apr-23 01:30N 50°55' W 005°01'715.0
2019-Apr-23 01:01N 50°60' W 004°52'815.3
2019-Apr-23 00:31N 51°04' W 004°43'816.2
2019-Apr-23 00:01N 51°09' W 004°33'1416.5
2019-Apr-22 23:11N 51°17' W 004°14'317.6
2019-Apr-22 23:00N 51°17' W 004°09'1117.0
2019-Apr-22 22:22N 51°19' W 003°52'916.3
2019-Apr-22 21:47N 51°20' W 003°37'515.0
2019-Apr-22 21:27N 51°20' W 003°29'614.1
2019-Apr-22 21:00N 51°21' W 003°19'611.9
2019-Apr-22 20:30N 51°23' W 003°10'4 4.1
2019-Apr-22 19:29N 51°27' W 003°09'0 0.6
2019-Apr-22 19:00N 51°28' W 003°09'0 0.0
2019-Apr-22 18:22N 51°28' W 003°09'0 0.0
2019-Apr-22 18:01N 51°28' W 003°09'0 0.0
2019-Apr-22 17:28N 51°28' W 003°09'0 0.0
2019-Apr-22 16:55N 51°28' W 003°09'0 0.0
2019-Apr-22 16:25N 51°28' W 003°09'0 0.0
2019-Apr-22 16:01N 51°28' W 003°09'0 0.0
2019-Apr-22 15:31N 51°28' W 003°09'0 0.0
2019-Apr-22 15:01N 51°28' W 003°09'0 0.0
2019-Apr-22 14:31N 51°28' W 003°09'0 0.0
2019-Apr-22 14:01N 51°28' W 003°09'0 0.0
2019-Apr-22 13:31N 51°28' W 003°09'0 0.0
2019-Apr-22 13:01N 51°28' W 003°09'0 0.0
2019-Apr-22 12:31N 51°28' W 003°09'0 0.0
2019-Apr-22 12:00N 51°28' W 003°09'0 0.0
2019-Apr-22 11:30N 51°28' W 003°09'0 0.0
2019-Apr-22 11:00N 51°28' W 003°09'0 0.0
2019-Apr-22 10:30N 51°28' W 003°09'0 0.0
2019-Apr-22 10:00N 51°28' W 003°09'0 0.0
2019-Apr-22 09:30N 51°28' W 003°09'0 0.0
2019-Apr-22 09:00N 51°28' W 003°09'0 0.4
2019-Apr-22 08:30N 51°27' W 003°09'0 0.4
2019-Apr-22 07:52N 51°27' W 003°10'1 2.3
2019-Apr-22 07:22N 51°26' W 003°09'7 7.9
2019-Apr-22 06:29N 51°21' W 003°18'2314.1
2019-Apr-22 04:49N 51°22' W 003°55'1716.3
2019-Apr-22 03:47N 51°25' W 004°22'516.0
2019-Apr-22 03:28N 51°25' W 004°30'715.7
2019-Apr-22 03:01N 51°27' W 004°41'815.0
2019-Apr-22 02:30N 51°28' W 004°53'714.7
2019-Apr-22 02:00N 51°28' W 005°05'715.0
2019-Apr-22 01:31N 51°29' W 005°17'714.6
2019-Apr-22 01:00N 51°31' W 005°28'714.0
2019-Apr-22 00:31N 51°31' W 005°39'714.3
2019-Apr-22 00:01N 51°32' W 005°51'714.4
2019-Apr-21 23:30N 51°34' W 006°02'714.6
2019-Apr-21 23:00N 51°35' W 006°14'714.7
2019-Apr-21 22:30N 51°36' W 006°26'714.7
2019-Apr-21 22:00N 51°37' W 006°37'815.2
2019-Apr-21 21:31N 51°38' W 006°49'815.3
2019-Apr-21 21:01N 51°39' W 007°02'815.1
2019-Apr-21 20:30N 51°40' W 007°14'715.0
2019-Apr-21 20:01N 51°41' W 007°26'815.2
2019-Apr-21 19:31N 51°42' W 007°38'815.3
2019-Apr-21 19:01N 51°43' W 007°50'815.1
2019-Apr-21 18:31N 51°44' W 008°02'715.0
2019-Apr-21 18:01N 51°45' W 008°14'510.9
2019-Apr-21 17:30N 51°50' W 008°16'2 4.5
2019-Apr-21 16:58N 51°50' W 008°20'0 0.0
2019-Apr-21 16:28N 51°50' W 008°20'0 0.0
2019-Apr-21 15:58N 51°50' W 008°20'0 0.0
2019-Apr-21 15:28N 51°50' W 008°20'0 0.0
2019-Apr-21 14:58N 51°50' W 008°20'0 0.0
2019-Apr-21 14:28N 51°50' W 008°20'0 0.0
2019-Apr-21 13:58N 51°50' W 008°20'0 0.0
2019-Apr-21 13:28N 51°50' W 008°20'0 0.0
2019-Apr-21 12:58N 51°50' W 008°20'0 0.0
2019-Apr-21 12:28N 51°50' W 008°20'0 0.0
2019-Apr-21 11:58N 51°50' W 008°20'0 0.0
2019-Apr-21 11:28N 51°50' W 008°20'0 0.0
2019-Apr-21 10:58N 51°50' W 008°20'0 0.0
2019-Apr-21 10:28N 51°50' W 008°20'0 0.0
2019-Apr-21 09:58N 51°50' W 008°20'0 0.0
2019-Apr-21 09:28N 51°50' W 008°20'0 0.0
2019-Apr-21 08:58N 51°50' W 008°20'0 0.0
2019-Apr-21 08:28N 51°50' W 008°20'0 0.0
2019-Apr-21 07:58N 51°50' W 008°20'0 0.0
2019-Apr-21 07:28N 51°50' W 008°20'0 0.0
2019-Apr-21 07:00N 51°50' W 008°20'0 0.0
2019-Apr-21 06:30N 51°50' W 008°20'0 0.0
2019-Apr-21 06:00N 51°50' W 008°20'0 0.0
2019-Apr-21 05:30N 51°50' W 008°20'1 1.2
2019-Apr-21 05:00N 51°50' W 008°19'4 7.6
2019-Apr-21 04:30N 51°47' W 008°16'4 8.8
2019-Apr-21 04:01N 51°43' W 008°13'2 4.2
2019-Apr-21 03:30N 51°42' W 008°10'611.8
2019-Apr-21 03:00N 51°37' W 008°04'612.5
2019-Apr-21 02:30N 51°31' W 008°01'612.4
2019-Apr-21 02:00N 51°27' W 007°54'612.9
2019-Apr-21 01:31N 51°21' W 007°50'713.3
2019-Apr-21 01:00N 51°15' W 007°45'713.4
2019-Apr-21 00:30N 51°09' W 007°39'75 3.6
2019-Apr-20 03:36N 50°22' W 006°07'213.2
2019-Apr-20 03:26N 50°23' W 006°05'613.6
2019-Apr-20 03:00N 50°27' W 005°57'713.8
2019-Apr-20 02:30N 50°31' W 005°49'714.1
2019-Apr-20 02:01N 50°35' W 005°40'714.5
2019-Apr-20 01:30N 50°40' W 005°31'815.0
2019-Apr-20 01:00N 50°45' W 005°22'815.4
2019-Apr-20 00:30N 50°49' W 005°12'815.8
2019-Apr-20 00:00N 50°54' W 005°03'816.1
2019-Apr-19 23:30N 50°59' W 004°53'816.5
2019-Apr-19 23:00N 51°05' W 004°42'917.3
2019-Apr-19 22:31N 51°10' W 004°32'3617.9
2019-Apr-19 20:29N 51°20' W 003°36'917.7
2019-Apr-19 19:59N 51°21' W 003°22'714.5
2019-Apr-19 19:29N 51°22' W 003°11'612.1
2019-Apr-19 19:00N 51°25' W 003°03'612.1
2019-Apr-19 18:29N 51°28' W 002°54'511.2
2019-Apr-19 18:00N 51°30' W 002°46'2 3.5
2019-Apr-19 17:28N 51°30' W 002°43'0 0.4
2019-Apr-19 16:58N 51°30' W 002°43'0 0.0
2019-Apr-19 16:28N 51°30' W 002°43'0 0.0
2019-Apr-19 15:58N 51°30' W 002°43'0 0.0
2019-Apr-19 15:28N 51°30' W 002°43'0 0.0
2019-Apr-19 14:58N 51°30' W 002°43'0 0.0
2019-Apr-19 14:28N 51°30' W 002°43'0 0.0
2019-Apr-19 13:58N 51°30' W 002°43'0 0.0
2019-Apr-19 13:28N 51°30' W 002°43'0 0.0
2019-Apr-19 12:58N 51°30' W 002°43'0 0.0
2019-Apr-19 12:28N 51°30' W 002°43'0 0.0
2019-Apr-19 11:58N 51°30' W 002°43'0 0.0
2019-Apr-19 11:28N 51°30' W 002°43'0 0.0
2019-Apr-19 10:58N 51°30' W 002°43'0 0.0
2019-Apr-19 10:28N 51°30' W 002°43'0 0.0
2019-Apr-19 09:58N 51°30' W 002°43'0 0.0
2019-Apr-19 09:28N 51°30' W 002°43'0 0.0
2019-Apr-19 08:58N 51°30' W 002°43'0 0.1
2019-Apr-19 06:33N 51°30' W 002°43'0 1.3
2019-Apr-19 06:26N 51°30' W 002°43'0 0.8
2019-Apr-19 06:00N 51°31' W 002°43'510.3
2019-Apr-19 05:29N 51°28' W 002°51'612.1
2019-Apr-19 05:00N 51°27' W 002°60'1012.1
2019-Apr-19 04:11N 51°21' W 003°14'312.1
2019-Apr-19 03:55N 51°21' W 003°19'3111.3
2019-Apr-19 01:09N 51°20' W 004°08'0 0.5
2019-Apr-19 01:00N 51°20' W 004°09'4 1.5
2019-Apr-18 22:18N 51°21' W 004°02'0 1.6
2019-Apr-18 22:00N 51°21' W 004°01'33 6.6
2019-Apr-18 16:55N 51°03' W 004°46'5 9.8
2019-Apr-18 16:25N 50°60' W 004°51'4 9.8
2019-Apr-18 16:00N 50°57' W 004°57'510.0
2019-Apr-18 15:30N 50°54' W 005°03'510.1
2019-Apr-18 15:00N 50°51' W 005°09'5 9.9
2019-Apr-18 14:30N 50°48' W 005°15'5 9.5
2019-Apr-18 14:00N 50°45' W 005°21'5 9.2
2019-Apr-18 13:30N 50°42' W 005°27'4 8.9
2019-Apr-18 13:00N 50°39' W 005°32'5 9.1
2019-Apr-18 12:30N 50°37' W 005°38'5 8.8
2019-Apr-18 11:55N 50°34' W 005°45'58 7.0
2019-Apr-18 03:42N 49°44' W 005°01'2 7.7
2019-Apr-18 03:30N 49°43' W 004°58'4 7.6
2019-Apr-18 02:56N 49°42' W 004°52'3 7.9
2019-Apr-18 02:30N 49°42' W 004°46'4 8.1
2019-Apr-18 02:00N 49°41' W 004°40'5 8.5
2019-Apr-18 01:26N 49°40' W 004°33'5 8.9
2019-Apr-18 00:54N 49°39' W 004°26'7 9.5
2019-Apr-18 00:10N 49°37' W 004°16'2 9.9
2019-Apr-17 23:56N 49°37' W 004°12'410.1
2019-Apr-17 23:30N 49°36' W 004°06'510.4
2019-Apr-17 23:00N 49°34' W 003°58'510.6
2019-Apr-17 22:30N 49°33' W 003°50'510.8
2019-Apr-17 22:00N 49°32' W 003°42'510.6
2019-Apr-17 21:30N 49°31' W 003°34'510.4
2019-Apr-17 21:00N 49°30' W 003°26'510.2
2019-Apr-17 20:30N 49°29' W 003°18'5 9.9
2019-Apr-17 20:00N 49°27' W 003°11'5 9.6
2019-Apr-17 19:30N 49°26' W 003°04'5 9.4
2019-Apr-17 19:00N 49°25' W 002°57'5 9.3
2019-Apr-17 18:30N 49°24' W 002°50'5 9.5
2019-Apr-17 18:00N 49°23' W 002°43'5 9.2
2019-Apr-17 17:30N 49°23' W 002°35'510.6
2019-Apr-17 17:00N 49°27' W 002°30'1 2.2
2019-Apr-17 16:28N 49°28' W 002°31'0 0.0
2019-Apr-17 15:58N 49°28' W 002°31'0 0.0
2019-Apr-17 15:28N 49°28' W 002°31'0 0.1
2019-Apr-17 14:58N 49°28' W 002°31'0 0.0
2019-Apr-17 14:28N 49°28' W 002°31'0 0.1
2019-Apr-17 13:58N 49°28' W 002°31'0 0.1
2019-Apr-17 13:28N 49°28' W 002°31'0 0.0
2019-Apr-17 12:58N 49°28' W 002°31'0 0.0
2019-Apr-17 12:28N 49°28' W 002°31'0 0.1
2019-Apr-17 11:58N 49°28' W 002°31'0 0.0
2019-Apr-17 11:28N 49°28' W 002°31'0 0.1
2019-Apr-17 10:58N 49°28' W 002°31'0 0.0
2019-Apr-17 10:28N 49°28' W 002°31'0 0.0
2019-Apr-17 09:58N 49°28' W 002°31'0 0.0
2019-Apr-17 09:28N 49°28' W 002°31'0 0.0
2019-Apr-17 08:58N 49°28' W 002°31'0 0.0
2019-Apr-17 08:28N 49°28' W 002°31'0 0.1
2019-Apr-17 07:58N 49°28' W 002°31'0 0.0
2019-Apr-17 07:30N 49°28' W 002°31'0 0.0
2019-Apr-17 07:00N 49°28' W 002°31'0 0.0
2019-Apr-17 06:30N 49°28' W 002°31'0 0.0
2019-Apr-17 06:00N 49°28' W 002°31'1 1.4
2019-Apr-17 05:30N 49°27' W 002°30'3 5.8
2019-Apr-17 05:00N 49°27' W 002°26'5 9.9
2019-Apr-17 04:30N 49°29' W 002°19'610.9
2019-Apr-17 04:00N 49°32' W 002°12'7 9.3
2019-Apr-17 03:14N 49°39' W 002°07'3 9.2
2019-Apr-17 02:52N 49°42' W 002°05'4 9.2
2019-Apr-17 02:26N 49°45' W 002°02'410.0
2019-Apr-17 02:00N 49°48' W 001°57'611.0
2019-Apr-17 01:30N 49°47' W 001°49'612.3
2019-Apr-17 01:00N 49°46' W 001°39'612.6
2019-Apr-17 00:31N 49°47' W 001°30'713.2
2019-Apr-17 00:00N 49°46' W 001°19'713.5
2019-Apr-16 23:30N 49°44' W 001°09'713.0
2019-Apr-16 23:00N 49°42' W 000°60'612.4
2019-Apr-16 22:30N 49°40' W 000°50'611.8
2019-Apr-16 22:00N 49°38' W 000°42'611.1
2019-Apr-16 21:30N 49°36' W 000°34'510.3
2019-Apr-16 21:00N 49°34' W 000°27'510.0
2019-Apr-16 20:30N 49°33' W 000°20'5 9.1
2019-Apr-16 20:00N 49°31' W 000°13'4 8.8
2019-Apr-16 19:30N 49°29' W 000°07'5 9.8
2019-Apr-16 19:00N 49°28' E 000°00'510.9
2019-Apr-16 18:30N 49°26' E 000°08'510.8
2019-Apr-16 18:00N 49°26' E 000°17'5 9.7
2019-Apr-16 17:30N 49°27' E 000°24'4 8.7
2019-Apr-16 17:00N 49°29' E 000°30'4 8.3
2019-Apr-16 16:30N 49°26' E 000°34'4 8.9
2019-Apr-16 16:00N 49°29' E 000°40'4 8.6
2019-Apr-16 15:30N 49°31' E 000°46'510.0
2019-Apr-16 15:00N 49°26' E 000°48'2 4.8
2019-Apr-16 14:30N 49°25' E 000°52'4 7.9
2019-Apr-16 14:00N 49°29' E 000°56'511.0
2019-Apr-16 13:30N 49°23' E 000°55'3 6.5
2019-Apr-16 13:00N 49°22' E 000°60'4 7.8
2019-Apr-16 12:30N 49°26' E 001°02'1 2.7
2019-Apr-16 11:58N 49°27' E 001°03'0 0.0
2019-Apr-16 11:28N 49°27' E 001°03'0 0.0
2019-Apr-16 10:58N 49°27' E 001°03'0 0.0
2019-Apr-16 10:28N 49°27' E 001°03'0 0.0
2019-Apr-16 09:58N 49°27' E 001°03'0 0.0
2019-Apr-16 09:28N 49°27' E 001°03'0 0.0
2019-Apr-16 08:58N 49°27' E 001°03'0 0.0
2019-Apr-16 08:25N 49°27' E 001°03'0 0.0
2019-Apr-16 07:58N 49°27' E 001°03'0 0.0
2019-Apr-16 07:28N 49°27' E 001°03'0 0.0
2019-Apr-16 06:55N 49°27' E 001°03'0 0.0
2019-Apr-16 06:28N 49°27' E 001°03'0 0.0
2019-Apr-16 05:58N 49°27' E 001°03'0 0.0
2019-Apr-16 05:28N 49°27' E 001°03'0 0.0
2019-Apr-16 04:58N 49°27' E 001°03'0 0.0
2019-Apr-16 04:28N 49°27' E 001°03'0 0.0
2019-Apr-16 03:58N 49°27' E 001°03'0 0.0
2019-Apr-16 03:28N 49°27' E 001°03'0 0.0
2019-Apr-16 02:58N 49°27' E 001°03'0 0.0
2019-Apr-16 02:28N 49°27' E 001°03'0 0.0
2019-Apr-16 01:58N 49°27' E 001°03'0 0.0
2019-Apr-16 01:28N 49°27' E 001°03'0 0.0
2019-Apr-16 00:58N 49°27' E 001°03'0 0.0
2019-Apr-16 00:28N 49°27' E 001°03'0 0.0
2019-Apr-15 23:58N 49°27' E 001°03'0 0.0
2019-Apr-15 23:28N 49°27' E 001°03'0 0.0
2019-Apr-15 22:55N 49°27' E 001°03'0 0.0
2019-Apr-15 22:28N 49°27' E 001°03'0 0.0
2019-Apr-15 21:58N 49°27' E 001°03'0 0.0
2019-Apr-15 21:28N 49°27' E 001°03'0 0.0
2019-Apr-15 20:58N 49°27' E 001°03'0 0.0
2019-Apr-15 20:28N 49°27' E 001°03'0 0.0
2019-Apr-15 19:58N 49°27' E 001°03'0 0.0
2019-Apr-15 19:28N 49°27' E 001°03'0 0.0
2019-Apr-15 18:58N 49°27' E 001°03'0 0.0
2019-Apr-15 18:28N 49°27' E 001°03'0 0.0
2019-Apr-15 17:58N 49°27' E 001°03'0 0.0
2019-Apr-15 17:28N 49°27' E 001°03'0 0.0
2019-Apr-15 16:58N 49°27' E 001°03'0 0.0
2019-Apr-15 16:28N 49°27' E 001°03'0 0.0
2019-Apr-15 15:55N 49°27' E 001°03'0 0.0
2019-Apr-15 15:28N 49°27' E 001°03'0 0.0
2019-Apr-15 14:52N 49°27' E 001°03'0 0.0
2019-Apr-15 14:28N 49°27' E 001°03'0 0.0
2019-Apr-15 13:58N 49°27' E 001°03'0 0.0
2019-Apr-15 13:28N 49°27' E 001°03'0 0.0
2019-Apr-15 12:58N 49°27' E 001°03'0 0.0
2019-Apr-15 12:28N 49°27' E 001°03'0 0.0
2019-Apr-15 11:58N 49°27' E 001°03'0 0.0
2019-Apr-15 11:28N 49°27' E 001°03'0 0.0
2019-Apr-15 10:58N 49°27' E 001°03'0 0.0
2019-Apr-15 10:28N 49°27' E 001°03'0 0.0
2019-Apr-15 09:58N 49°27' E 001°03'0 0.0
2019-Apr-15 09:25N 49°27' E 001°03'0 0.0
2019-Apr-15 08:55N 49°27' E 001°03'0 0.0
2019-Apr-15 08:25N 49°27' E 001°03'0 0.0
2019-Apr-15 07:58N 49°27' E 001°03'0 0.0
2019-Apr-15 07:28N 49°27' E 001°03'0 0.0
2019-Apr-15 06:58N 49°27' E 001°03'0 0.0
2019-Apr-15 06:28N 49°27' E 001°03'0 0.0
2019-Apr-15 05:55N 49°27' E 001°03'0 0.0
2019-Apr-15 05:28N 49°27' E 001°03'0 0.0
2019-Apr-15 04:58N 49°27' E 001°03'0 0.0
2019-Apr-15 04:28N 49°27' E 001°03'0 0.0
2019-Apr-15 03:58N 49°27' E 001°03'0 0.0
2019-Apr-15 03:28N 49°27' E 001°03'0 0.0
2019-Apr-15 02:58N 49°27' E 001°03'0 0.0
2019-Apr-15 02:28N 49°27' E 001°03'0 0.0
2019-Apr-15 01:52N 49°27' E 001°03'0 0.0
2019-Apr-15 01:28N 49°27' E 001°03'0 0.0
2019-Apr-15 00:58N 49°27' E 001°03'0 0.0
2019-Apr-15 00:28N 49°27' E 001°03'0 0.0
2019-Apr-14 23:58N 49°27' E 001°03'0 0.0
2019-Apr-14 23:28N 49°27' E 001°03'0 0.0
2019-Apr-14 22:58N 49°27' E 001°03'0 0.0
2019-Apr-14 22:28N 49°27' E 001°03'0 0.2
2019-Apr-14 22:00N 49°27' E 001°03'2 4.9
2019-Apr-14 21:30N 49°25' E 001°01'  
Track history (hours):
 
Tides and Currents Weather Stations Pressure Air Temp Water Temp Dewpoint Dewpoint Depression Visibility Wind Speed Wind Dir Waves Ship Positions

Marco Polo

Operator: Orient Lines

Last reported at 2019-Apr-24 21:29 UTC. Time now 2019-Apr-24 21:53 UTC.
Position N 50°18' E 000°07'.

Type: Ship. MMSI: 308691456.

Date/timePositionNaut miles runAvg speedWind from/ knotsBaromVisibWave heightAir tempDewpointWater temp
2019-Apr-24 21:29N 50°18' E 000°07'2115.0
2019-Apr-24 20:07N 49°58' E 000°01'215.9
2019-Apr-24 20:01N 49°56' E 000°00'815.5
2019-Apr-24 19:31N 49°49' W 000°02'815.4
2019-Apr-24 19:01N 49°41' W 000°04'815.2
2019-Apr-24 18:31N 49°34' W 000°02'612.5
2019-Apr-24 18:00N 49°29' E 000°05'1 1.8
2019-Apr-24 17:28N 49°29' E 000°06'0 0.0
2019-Apr-24 16:58N 49°29' E 000°06'0 0.0
2019-Apr-24 16:28N 49°29' E 000°06'0 0.0
2019-Apr-24 15:58N 49°29' E 000°06'0 0.0
2019-Apr-24 15:28N 49°29' E 000°06'0 0.0
2019-Apr-24 14:58N 49°29' E 000°06'0 0.0
2019-Apr-24 14:28N 49°29' E 000°06'0 0.0
2019-Apr-24 13:58N 49°29' E 000°06'0 0.0
2019-Apr-24 13:28N 49°29' E 000°06'0 0.0
2019-Apr-24 12:58N 49°29' E 000°06'0 0.0
2019-Apr-24 12:28N 49°29' E 000°06'0 0.0
2019-Apr-24 11:58N 49°29' E 000°06'0 0.0
2019-Apr-24 11:28N 49°29' E 000°06'0 0.0
2019-Apr-24 10:58N 49°29' E 000°06'0 0.0
2019-Apr-24 10:28N 49°29' E 000°06'0 0.0
2019-Apr-24 09:58N 49°29' E 000°06'0 1.0
2019-Apr-24 09:31N 49°29' E 000°07'510.7
2019-Apr-24 09:00N 49°30' W 000°01'713.4
2019-Apr-24 08:30N 49°32' W 000°11'815.3
2019-Apr-24 08:01N 49°34' W 000°22'815.6
2019-Apr-24 07:30N 49°37' W 000°33'1315.1
2019-Apr-24 06:38N 49°42' W 000°52'214.8
2019-Apr-24 06:30N 49°42' W 000°55'714.3
2019-Apr-24 06:00N 49°44' W 001°06'713.5
2019-Apr-24 05:30N 49°46' W 001°16'612.5
2019-Apr-24 05:00N 49°47' W 001°25'612.3
2019-Apr-24 04:30N 49°47' W 001°35'612.6
2019-Apr-24 04:00N 49°49' W 001°45'612.3
2019-Apr-24 03:31N 49°50' W 001°54'713.2
2019-Apr-24 03:00N 49°51' W 002°04'1315.0
2019-Apr-24 02:08N 49°52' W 002°24'215.7
2019-Apr-24 02:00N 49°52' W 002°27'815.9
2019-Apr-24 01:30N 49°52' W 002°39'916.0
2019-Apr-24 00:56N 49°51' W 002°54'816.2
2019-Apr-24 00:26N 49°51' W 003°06'716.3
2019-Apr-24 00:00N 49°50' W 003°17'816.4
2019-Apr-23 23:30N 49°51' W 003°30'816.5
2019-Apr-23 23:00N 49°51' W 003°42'816.8
2019-Apr-23 22:30N 49°51' W 003°55'816.9
2019-Apr-23 22:00N 49°51' W 004°09'1016.9
2019-Apr-23 21:26N 49°52' W 004°24'817.0
2019-Apr-23 20:59N 49°52' W 004°35'63 3.9
2019-Apr-23 05:00N 50°28' W 005°55'510.7
2019-Apr-23 04:30N 50°31' W 005°49'510.8
2019-Apr-23 04:00N 50°34' W 005°42'611.3
2019-Apr-23 03:30N 50°38' W 005°35'713.2
2019-Apr-23 03:00N 50°42' W 005°27'713.5
2019-Apr-23 02:30N 50°46' W 005°18'713.6
2019-Apr-23 02:00N 50°51' W 005°10'714.1
2019-Apr-23 01:30N 50°55' W 005°01'715.0
2019-Apr-23 01:01N 50°60' W 004°52'815.3
2019-Apr-23 00:31N 51°04' W 004°43'816.2
2019-Apr-23 00:01N 51°09' W 004°33'1416.5
2019-Apr-22 23:11N 51°17' W 004°14'317.6
2019-Apr-22 23:00N 51°17' W 004°09'1117.0
2019-Apr-22 22:22N 51°19' W 003°52'916.3
2019-Apr-22 21:47N 51°20' W 003°37'515.0
2019-Apr-22 21:27N 51°20' W 003°29'614.1
2019-Apr-22 21:00N 51°21' W 003°19'611.9
2019-Apr-22 20:30N 51°23' W 003°10'4 4.1
2019-Apr-22 19:29N 51°27' W 003°09'0 0.6
2019-Apr-22 19:00N 51°28' W 003°09'0 0.0
2019-Apr-22 18:22N 51°28' W 003°09'0 0.0
2019-Apr-22 18:01N 51°28' W 003°09'0 0.0
2019-Apr-22 17:28N 51°28' W 003°09'0 0.0
2019-Apr-22 16:55N 51°28' W 003°09'0 0.0
2019-Apr-22 16:25N 51°28' W 003°09'0 0.0
2019-Apr-22 16:01N 51°28' W 003°09'0 0.0
2019-Apr-22 15:31N 51°28' W 003°09'0 0.0
2019-Apr-22 15:01N 51°28' W 003°09'0 0.0
2019-Apr-22 14:31N 51°28' W 003°09'0 0.0
2019-Apr-22 14:01N 51°28' W 003°09'0 0.0
2019-Apr-22 13:31N 51°28' W 003°09'0 0.0
2019-Apr-22 13:01N 51°28' W 003°09'0 0.0
2019-Apr-22 12:31N 51°28' W 003°09'0 0.0
2019-Apr-22 12:00N 51°28' W 003°09'0 0.0
2019-Apr-22 11:30N 51°28' W 003°09'0 0.0
2019-Apr-22 11:00N 51°28' W 003°09'0 0.0
2019-Apr-22 10:30N 51°28' W 003°09'0 0.0
2019-Apr-22 10:00N 51°28' W 003°09'0 0.0
2019-Apr-22 09:30N 51°28' W 003°09'0 0.0
2019-Apr-22 09:00N 51°28' W 003°09'0 0.4
2019-Apr-22 08:30N 51°27' W 003°09'0 0.4
2019-Apr-22 07:52N 51°27' W 003°10'1 2.3
2019-Apr-22 07:22N 51°26' W 003°09'7 7.9
2019-Apr-22 06:29N 51°21' W 003°18'2314.1
2019-Apr-22 04:49N 51°22' W 003°55'1716.3
2019-Apr-22 03:47N 51°25' W 004°22'516.0
2019-Apr-22 03:28N 51°25' W 004°30'715.7
2019-Apr-22 03:01N 51°27' W 004°41'815.0
2019-Apr-22 02:30N 51°28' W 004°53'714.7
2019-Apr-22 02:00N 51°28' W 005°05'715.0
2019-Apr-22 01:31N 51°29' W 005°17'714.6
2019-Apr-22 01:00N 51°31' W 005°28'714.0
2019-Apr-22 00:31N 51°31' W 005°39'714.3
2019-Apr-22 00:01N 51°32' W 005°51'714.4
2019-Apr-21 23:30N 51°34' W 006°02'714.6
2019-Apr-21 23:00N 51°35' W 006°14'714.7
2019-Apr-21 22:30N 51°36' W 006°26'714.7
2019-Apr-21 22:00N 51°37' W 006°37'815.2
2019-Apr-21 21:31N 51°38' W 006°49'815.3
2019-Apr-21 21:01N 51°39' W 007°02'815.1
2019-Apr-21 20:30N 51°40' W 007°14'715.0
2019-Apr-21 20:01N 51°41' W 007°26'815.2
2019-Apr-21 19:31N 51°42' W 007°38'815.3
2019-Apr-21 19:01N 51°43' W 007°50'815.1
2019-Apr-21 18:31N 51°44' W 008°02'715.0
2019-Apr-21 18:01N 51°45' W 008°14'510.9
2019-Apr-21 17:30N 51°50' W 008°16'2 4.5
2019-Apr-21 16:58N 51°50' W 008°20'0 0.0
2019-Apr-21 16:28N 51°50' W 008°20'0 0.0
2019-Apr-21 15:58N 51°50' W 008°20'0 0.0
2019-Apr-21 15:28N 51°50' W 008°20'0 0.0
2019-Apr-21 14:58N 51°50' W 008°20'0 0.0
2019-Apr-21 14:28N 51°50' W 008°20'0 0.0
2019-Apr-21 13:58N 51°50' W 008°20'0 0.0
2019-Apr-21 13:28N 51°50' W 008°20'0 0.0
2019-Apr-21 12:58N 51°50' W 008°20'0 0.0
2019-Apr-21 12:28N 51°50' W 008°20'0 0.0
2019-Apr-21 11:58N 51°50' W 008°20'0 0.0
2019-Apr-21 11:28N 51°50' W 008°20'0 0.0
2019-Apr-21 10:58N 51°50' W 008°20'0 0.0
2019-Apr-21 10:28N 51°50' W 008°20'0 0.0
2019-Apr-21 09:58N 51°50' W 008°20'0 0.0
2019-Apr-21 09:28N 51°50' W 008°20'0 0.0
2019-Apr-21 08:58N 51°50' W 008°20'0 0.0
2019-Apr-21 08:28N 51°50' W 008°20'0 0.0
2019-Apr-21 07:58N 51°50' W 008°20'0 0.0
2019-Apr-21 07:28N 51°50' W 008°20'0 0.0
2019-Apr-21 07:00N 51°50' W 008°20'0 0.0
2019-Apr-21 06:30N 51°50' W 008°20'0 0.0
2019-Apr-21 06:00N 51°50' W 008°20'0 0.0
2019-Apr-21 05:30N 51°50' W 008°20'1 1.2
2019-Apr-21 05:00N 51°50' W 008°19'4 7.6
2019-Apr-21 04:30N 51°47' W 008°16'4 8.8
2019-Apr-21 04:01N 51°43' W 008°13'2 4.2
2019-Apr-21 03:30N 51°42' W 008°10'611.8
2019-Apr-21 03:00N 51°37' W 008°04'612.5
2019-Apr-21 02:30N 51°31' W 008°01'612.4
2019-Apr-21 02:00N 51°27' W 007°54'612.9
2019-Apr-21 01:31N 51°21' W 007°50'713.3
2019-Apr-21 01:00N 51°15' W 007°45'713.4
2019-Apr-21 00:30N 51°09' W 007°39'75 3.6
2019-Apr-20 03:36N 50°22' W 006°07'213.2
2019-Apr-20 03:26N 50°23' W 006°05'613.6
2019-Apr-20 03:00N 50°27' W 005°57'713.8
2019-Apr-20 02:30N 50°31' W 005°49'714.1
2019-Apr-20 02:01N 50°35' W 005°40'714.5
2019-Apr-20 01:30N 50°40' W 005°31'815.0
2019-Apr-20 01:00N 50°45' W 005°22'815.4
2019-Apr-20 00:30N 50°49' W 005°12'815.8
2019-Apr-20 00:00N 50°54' W 005°03'816.1
2019-Apr-19 23:30N 50°59' W 004°53'816.5
2019-Apr-19 23:00N 51°05' W 004°42'917.3
2019-Apr-19 22:31N 51°10' W 004°32'3617.9
2019-Apr-19 20:29N 51°20' W 003°36'917.7
2019-Apr-19 19:59N 51°21' W 003°22'714.5
2019-Apr-19 19:29N 51°22' W 003°11'612.1
2019-Apr-19 19:00N 51°25' W 003°03'612.1
2019-Apr-19 18:29N 51°28' W 002°54'511.2
2019-Apr-19 18:00N 51°30' W 002°46'2 3.5
2019-Apr-19 17:28N 51°30' W 002°43'0 0.4
2019-Apr-19 16:58N 51°30' W 002°43'0 0.0
2019-Apr-19 16:28N 51°30' W 002°43'0 0.0
2019-Apr-19 15:58N 51°30' W 002°43'0 0.0
2019-Apr-19 15:28N 51°30' W 002°43'0 0.0
2019-Apr-19 14:58N 51°30' W 002°43'0 0.0
2019-Apr-19 14:28N 51°30' W 002°43'0 0.0
2019-Apr-19 13:58N 51°30' W 002°43'0 0.0
2019-Apr-19 13:28N 51°30' W 002°43'0 0.0
2019-Apr-19 12:58N 51°30' W 002°43'0 0.0
2019-Apr-19 12:28N 51°30' W 002°43'0 0.0
2019-Apr-19 11:58N 51°30' W 002°43'0 0.0
2019-Apr-19 11:28N 51°30' W 002°43'0 0.0
2019-Apr-19 10:58N 51°30' W 002°43'0 0.0
2019-Apr-19 10:28N 51°30' W 002°43'0 0.0
2019-Apr-19 09:58N 51°30' W 002°43'0 0.0
2019-Apr-19 09:28N 51°30' W 002°43'0 0.0
2019-Apr-19 08:58N 51°30' W 002°43'0 0.1
2019-Apr-19 06:33N 51°30' W 002°43'0 1.3
2019-Apr-19 06:26N 51°30' W 002°43'0 0.8
2019-Apr-19 06:00N 51°31' W 002°43'510.3
2019-Apr-19 05:29N 51°28' W 002°51'612.1
2019-Apr-19 05:00N 51°27' W 002°60'1012.1
2019-Apr-19 04:11N 51°21' W 003°14'312.1
2019-Apr-19 03:55N 51°21' W 003°19'3111.3
2019-Apr-19 01:09N 51°20' W 004°08'0 0.5
2019-Apr-19 01:00N 51°20' W 004°09'4 1.5
2019-Apr-18 22:18N 51°21' W 004°02'0 1.6
2019-Apr-18 22:00N 51°21' W 004°01'33 6.6
2019-Apr-18 16:55N 51°03' W 004°46'5 9.8
2019-Apr-18 16:25N 50°60' W 004°51'4 9.8
2019-Apr-18 16:00N 50°57' W 004°57'510.0
2019-Apr-18 15:30N 50°54' W 005°03'510.1
2019-Apr-18 15:00N 50°51' W 005°09'5 9.9
2019-Apr-18 14:30N 50°48' W 005°15'5 9.5
2019-Apr-18 14:00N 50°45' W 005°21'5 9.2
2019-Apr-18 13:30N 50°42' W 005°27'4 8.9
2019-Apr-18 13:00N 50°39' W 005°32'5 9.1
2019-Apr-18 12:30N 50°37' W 005°38'5 8.8
2019-Apr-18 11:55N 50°34' W 005°45'58 7.0
2019-Apr-18 03:42N 49°44' W 005°01'2 7.7
2019-Apr-18 03:30N 49°43' W 004°58'4 7.6
2019-Apr-18 02:56N 49°42' W 004°52'3 7.9
2019-Apr-18 02:30N 49°42' W 004°46'4 8.1
2019-Apr-18 02:00N 49°41' W 004°40'5 8.5
2019-Apr-18 01:26N 49°40' W 004°33'5 8.9
2019-Apr-18 00:54N 49°39' W 004°26'7 9.5
2019-Apr-18 00:10N 49°37' W 004°16'2 9.9
2019-Apr-17 23:56N 49°37' W 004°12'410.1
2019-Apr-17 23:30N 49°36' W 004°06'510.4
2019-Apr-17 23:00N 49°34' W 003°58'510.6
2019-Apr-17 22:30N 49°33' W 003°50'510.8
2019-Apr-17 22:00N 49°32' W 003°42'510.6
2019-Apr-17 21:30N 49°31' W 003°34'510.4
2019-Apr-17 21:00N 49°30' W 003°26'510.2
2019-Apr-17 20:30N 49°29' W 003°18'5 9.9
2019-Apr-17 20:00N 49°27' W 003°11'5 9.6
2019-Apr-17 19:30N 49°26' W 003°04'5 9.4
2019-Apr-17 19:00N 49°25' W 002°57'5 9.3
2019-Apr-17 18:30N 49°24' W 002°50'5 9.5
2019-Apr-17 18:00N 49°23' W 002°43'5 9.2
2019-Apr-17 17:30N 49°23' W 002°35'510.6
2019-Apr-17 17:00N 49°27' W 002°30'1 2.2
2019-Apr-17 16:28N 49°28' W 002°31'0 0.0
2019-Apr-17 15:58N 49°28' W 002°31'0 0.0
2019-Apr-17 15:28N 49°28' W 002°31'0 0.1
2019-Apr-17 14:58N 49°28' W 002°31'0 0.0
2019-Apr-17 14:28N 49°28' W 002°31'0 0.1
2019-Apr-17 13:58N 49°28' W 002°31'0 0.1
2019-Apr-17 13:28N 49°28' W 002°31'0 0.0
2019-Apr-17 12:58N 49°28' W 002°31'0 0.0
2019-Apr-17 12:28N 49°28' W 002°31'0 0.1
2019-Apr-17 11:58N 49°28' W 002°31'0 0.0
2019-Apr-17 11:28N 49°28' W 002°31'0 0.1
2019-Apr-17 10:58N 49°28' W 002°31'0 0.0
2019-Apr-17 10:28N 49°28' W 002°31'0 0.0
2019-Apr-17 09:58N 49°28' W 002°31'0 0.0
2019-Apr-17 09:28N 49°28' W 002°31'0 0.0
2019-Apr-17 08:58N 49°28' W 002°31'0 0.0
2019-Apr-17 08:28N 49°28' W 002°31'0 0.1
2019-Apr-17 07:58N 49°28' W 002°31'0 0.0
2019-Apr-17 07:30N 49°28' W 002°31'0 0.0
2019-Apr-17 07:00N 49°28' W 002°31'0 0.0
2019-Apr-17 06:30N 49°28' W 002°31'0 0.0
2019-Apr-17 06:00N 49°28' W 002°31'1 1.4
2019-Apr-17 05:30N 49°27' W 002°30'3 5.8
2019-Apr-17 05:00N 49°27' W 002°26'5 9.9
2019-Apr-17 04:30N 49°29' W 002°19'610.9
2019-Apr-17 04:00N 49°32' W 002°12'7 9.3
2019-Apr-17 03:14N 49°39' W 002°07'3 9.2
2019-Apr-17 02:52N 49°42' W 002°05'4 9.2
2019-Apr-17 02:26N 49°45' W 002°02'410.0
2019-Apr-17 02:00N 49°48' W 001°57'611.0
2019-Apr-17 01:30N 49°47' W 001°49'612.3
2019-Apr-17 01:00N 49°46' W 001°39'612.6
2019-Apr-17 00:31N 49°47' W 001°30'713.2
2019-Apr-17 00:00N 49°46' W 001°19'713.5
2019-Apr-16 23:30N 49°44' W 001°09'713.0
2019-Apr-16 23:00N 49°42' W 000°60'612.4
2019-Apr-16 22:30N 49°40' W 000°50'611.8
2019-Apr-16 22:00N 49°38' W 000°42'611.1
2019-Apr-16 21:30N 49°36' W 000°34'510.3
2019-Apr-16 21:00N 49°34' W 000°27'510.0
2019-Apr-16 20:30N 49°33' W 000°20'5 9.1
2019-Apr-16 20:00N 49°31' W 000°13'4 8.8
2019-Apr-16 19:30N 49°29' W 000°07'5 9.8
2019-Apr-16 19:00N 49°28' E 000°00'510.9
2019-Apr-16 18:30N 49°26' E 000°08'510.8
2019-Apr-16 18:00N 49°26' E 000°17'5 9.7
2019-Apr-16 17:30N 49°27' E 000°24'4 8.7
2019-Apr-16 17:00N 49°29' E 000°30'4 8.3
2019-Apr-16 16:30N 49°26' E 000°34'4 8.9
2019-Apr-16 16:00N 49°29' E 000°40'4 8.6
2019-Apr-16 15:30N 49°31' E 000°46'510.0
2019-Apr-16 15:00N 49°26' E 000°48'2 4.8
2019-Apr-16 14:30N 49°25' E 000°52'4 7.9
2019-Apr-16 14:00N 49°29' E 000°56'511.0
2019-Apr-16 13:30N 49°23' E 000°55'3 6.5
2019-Apr-16 13:00N 49°22' E 000°60'4 7.8
2019-Apr-16 12:30N 49°26' E 001°02'1 2.7
2019-Apr-16 11:58N 49°27' E 001°03'0 0.0
2019-Apr-16 11:28N 49°27' E 001°03'0 0.0
2019-Apr-16 10:58N 49°27' E 001°03'0 0.0
2019-Apr-16 10:28N 49°27' E 001°03'0 0.0
2019-Apr-16 09:58N 49°27' E 001°03'0 0.0
2019-Apr-16 09:28N 49°27' E 001°03'0 0.0
2019-Apr-16 08:58N 49°27' E 001°03'0 0.0
2019-Apr-16 08:25N 49°27' E 001°03'0 0.0
2019-Apr-16 07:58N 49°27' E 001°03'0 0.0
2019-Apr-16 07:28N 49°27' E 001°03'0 0.0
2019-Apr-16 06:55N 49°27' E 001°03'0 0.0
2019-Apr-16 06:28N 49°27' E 001°03'0 0.0
2019-Apr-16 05:58N 49°27' E 001°03'0 0.0
2019-Apr-16 05:28N 49°27' E 001°03'0 0.0
2019-Apr-16 04:58N 49°27' E 001°03'0 0.0
2019-Apr-16 04:28N 49°27' E 001°03'0 0.0
2019-Apr-16 03:58N 49°27' E 001°03'0 0.0
2019-Apr-16 03:28N 49°27' E 001°03'0 0.0
2019-Apr-16 02:58N 49°27' E 001°03'0 0.0
2019-Apr-16 02:28N 49°27' E 001°03'0 0.0
2019-Apr-16 01:58N 49°27' E 001°03'0 0.0
2019-Apr-16 01:28N 49°27' E 001°03'0 0.0
2019-Apr-16 00:58N 49°27' E 001°03'0 0.0
2019-Apr-16 00:28N 49°27' E 001°03'0 0.0
2019-Apr-15 23:58N 49°27' E 001°03'0 0.0
2019-Apr-15 23:28N 49°27' E 001°03'0 0.0
2019-Apr-15 22:55N 49°27' E 001°03'0 0.0
2019-Apr-15 22:28N 49°27' E 001°03'0 0.0
2019-Apr-15 21:58N 49°27' E 001°03'0 0.0
2019-Apr-15 21:28N 49°27' E 001°03'0 0.0
2019-Apr-15 20:58N 49°27' E 001°03'0 0.0
2019-Apr-15 20:28N 49°27' E 001°03'0 0.0
2019-Apr-15 19:58N 49°27' E 001°03'0 0.0
2019-Apr-15 19:28N 49°27' E 001°03'0 0.0
2019-Apr-15 18:58N 49°27' E 001°03'0 0.0
2019-Apr-15 18:28N 49°27' E 001°03'0 0.0
2019-Apr-15 17:58N 49°27' E 001°03'0 0.0
2019-Apr-15 17:28N 49°27' E 001°03'0 0.0
2019-Apr-15 16:58N 49°27' E 001°03'0 0.0
2019-Apr-15 16:28N 49°27' E 001°03'0 0.0
2019-Apr-15 15:55N 49°27' E 001°03'0 0.0
2019-Apr-15 15:28N 49°27' E 001°03'0 0.0
2019-Apr-15 14:52N 49°27' E 001°03'0 0.0
2019-Apr-15 14:28N 49°27' E 001°03'0 0.0
2019-Apr-15 13:58N 49°27' E 001°03'0 0.0
2019-Apr-15 13:28N 49°27' E 001°03'0 0.0
2019-Apr-15 12:58N 49°27' E 001°03'0 0.0
2019-Apr-15 12:28N 49°27' E 001°03'0 0.0
2019-Apr-15 11:58N 49°27' E 001°03'0 0.0
2019-Apr-15 11:28N 49°27' E 001°03'0 0.0
2019-Apr-15 10:58N 49°27' E 001°03'0 0.0
2019-Apr-15 10:28N 49°27' E 001°03'0 0.0
2019-Apr-15 09:58N 49°27' E 001°03'0 0.0
2019-Apr-15 09:25N 49°27' E 001°03'0 0.0
2019-Apr-15 08:55N 49°27' E 001°03'0 0.0
2019-Apr-15 08:25N 49°27' E 001°03'0 0.0
2019-Apr-15 07:58N 49°27' E 001°03'0 0.0
2019-Apr-15 07:28N 49°27' E 001°03'0 0.0
2019-Apr-15 06:58N 49°27' E 001°03'0 0.0
2019-Apr-15 06:28N 49°27' E 001°03'0 0.0
2019-Apr-15 05:55N 49°27' E 001°03'0 0.0
2019-Apr-15 05:28N 49°27' E 001°03'0 0.0
2019-Apr-15 04:58N 49°27' E 001°03'0 0.0
2019-Apr-15 04:28N 49°27' E 001°03'0 0.0
2019-Apr-15 03:58N 49°27' E 001°03'0 0.0
2019-Apr-15 03:28N 49°27' E 001°03'0 0.0
2019-Apr-15 02:58N 49°27' E 001°03'0 0.0
2019-Apr-15 02:28N 49°27' E 001°03'0 0.0
2019-Apr-15 01:52N 49°27' E 001°03'0 0.0
2019-Apr-15 01:28N 49°27' E 001°03'0 0.0
2019-Apr-15 00:58N 49°27' E 001°03'0 0.0
2019-Apr-15 00:28N 49°27' E 001°03'0 0.0
2019-Apr-14 23:58N 49°27' E 001°03'0 0.0
2019-Apr-14 23:28N 49°27' E 001°03'0 0.0
2019-Apr-14 22:58N 49°27' E 001°03'0 0.0
2019-Apr-14 22:28N 49°27' E 001°03'0 0.2
2019-Apr-14 22:00N 49°27' E 001°03'2 4.9
2019-Apr-14 21:30N 49°25' E 001°01'  

Dump ship's entire track history